ヌクアロファ の空港の天気 - METARとTAF

ファアモツ国際空港 ( NFTF / TBU ) - トンガ ヌクアロファ
飛行場実況気象(Metar)
観測時間01/15 18:05 TOT (01/15 05:05 UTC)
風向・風速北西 5m/s
視程10km以上
天気現象
少しの雲 雲底高度 270m
全天の4割程度の雲 雲底高度 490m
気温28℃
湿度89%
気圧1008hPa
METARNFTF 150505Z 31009KT 9999 TS FEW009 SCT016CB 28/26 Q1008 RMK VA CLD OVER TBU,RAIN ROCK
過去の天気等 Google飛行場航空写真 Wunderground天気予報

過去48時間のMETAR

飛行場予報(TAF)
データがありません